Time;durP1;ratioP1;P1;durP2;ratioP2;P2;SDS_P1;SDS_P2;PMS_P1;PMS_P2;Temp;Humidity;BMP_temperature;BMP_pressure;BME280_temperature;BME280_humidity;BME280_pressure;Samples;Min_cycle;Max_cycle;Signal;HPM_P1;HPM_P2
2022/05/16 00:00:10;;;;;;;1.63;1.10;;;24.30;41.70;;;;;;5074977;28;20063;-57
2022/05/16 00:02:36;;;;;;;2.25;1.20;;;24.30;41.70;;;;;;5074968;28;20100;-58
2022/05/16 00:05:03;;;;;;;2.30;1.20;;;24.30;41.70;;;;;;5074910;28;20100;-58
2022/05/16 00:07:32;;;;;;;1.95;0.90;;;24.30;41.70;;;;;;5074746;28;20016;-58
2022/05/16 00:09:58;;;;;;;2.53;1.27;;;24.30;41.70;;;;;;5074420;28;20016;-58
2022/05/16 00:12:25;;;;;;;2.35;1.08;;;24.30;41.70;;;;;;5074712;28;20021;-58
2022/05/16 00:14:50;;;;;;;2.30;1.10;;;24.30;41.70;;;;;;5074486;28;20016;-58
2022/05/16 00:17:17;;;;;;;1.80;1.25;;;24.30;41.70;;;;;;5073342;28;20020;-59
2022/05/16 00:19:43;;;;;;;3.60;0.95;;;24.30;41.70;;;;;;5074385;28;20112;-58
2022/05/16 00:22:10;;;;;;;1.23;0.93;;;24.30;41.80;;;;;;5074144;28;20044;-58
2022/05/16 00:24:39;;;;;;;2.20;1.10;;;24.30;41.90;;;;;;5074100;28;20013;-58
2022/05/16 00:27:05;;;;;;;1.83;1.10;;;24.30;41.90;;;;;;5073699;28;20005;-59
2022/05/16 00:29:30;;;;;;;1.70;1.10;;;24.30;41.90;;;;;;5073915;28;20364;-58
2022/05/16 00:31:56;;;;;;;1.48;1.10;;;24.30;41.90;;;;;;5072677;28;20035;-58
2022/05/16 00:34:22;;;;;;;1.30;1.02;;;24.20;41.90;;;;;;5073917;28;20113;-59
2022/05/16 00:36:48;;;;;;;1.67;1.10;;;24.30;41.90;;;;;;5073873;28;20479;-59
2022/05/16 00:39:18;;;;;;;1.42;1.02;;;24.30;42.20;;;;;;5073747;28;20027;-58
2022/05/16 00:41:44;;;;;;;1.90;1.30;;;24.20;41.90;;;;;;5073915;28;20009;-59
2022/05/16 00:44:10;;;;;;;1.73;1.05;;;24.30;41.90;;;;;;5073756;28;20020;-58
2022/05/16 00:46:36;;;;;;;3.83;1.02;;;24.20;42.00;;;;;;5073777;28;20455;-58
2022/05/16 00:49:04;;;;;;;1.80;1.23;;;24.20;42.00;;;;;;5074181;28;20021;-61
2022/05/16 00:51:52;;;;;;;2.35;1.40;;;24.20;42.00;;;;;;5074097;28;20074;-59
2022/05/16 00:54:25;;;;;;;2.83;1.17;;;24.20;42.00;;;;;;5073664;28;20104;-58
2022/05/16 00:56:53;;;;;;;1.80;1.00;;;24.20;42.00;;;;;;5073707;28;20011;-59
2022/05/16 00:59:19;;;;;;;1.65;1.13;;;24.20;42.00;;;;;;5072462;28;20020;-59
2022/05/16 01:07:14;;;;;;;1.77;1.20;;;24.20;42.10;;;;;;5074048;28;20484;-59
2022/05/16 01:09:40;;;;;;;1.20;1.10;;;24.20;42.10;;;;;;5073494;28;20012;-58
2022/05/16 01:12:06;;;;;;;1.63;1.08;;;24.20;42.10;;;;;;5071930;28;20029;-58
2022/05/16 01:14:51;;;;;;;2.55;1.10;;;24.20;42.00;;;;;;5074677;28;20098;-60
2022/05/16 01:17:17;;;;;;;1.42;1.15;;;24.20;42.10;;;;;;5075060;28;20012;-59
2022/05/16 01:19:43;;;;;;;1.52;1.15;;;24.20;42.10;;;;;;5075474;28;20109;-59
2022/05/16 01:22:31;;;;;;;2.58;1.30;;;24.20;42.20;;;;;;5075138;28;20037;-59
2022/05/16 01:24:58;;;;;;;2.80;1.50;;;24.20;42.20;;;;;;5074228;28;20012;-59
2022/05/16 01:27:24;;;;;;;2.30;1.10;;;24.20;42.20;;;;;;5075641;28;20066;-59
2022/05/16 01:29:50;;;;;;;1.33;1.10;;;24.20;42.20;;;;;;5076410;28;20036;-59
2022/05/16 01:32:18;;;;;;;1.58;1.00;;;24.20;42.20;;;;;;5073920;28;20033;-59
2022/05/16 01:34:44;;;;;;;2.17;1.20;;;24.20;42.20;;;;;;5075354;28;20020;-59
2022/05/16 01:37:11;;;;;;;2.53;1.17;;;24.20;42.20;;;;;;5075367;28;20132;-61
2022/05/16 01:39:37;;;;;;;1.60;1.13;;;24.20;42.30;;;;;;5076022;28;20017;-59
2022/05/16 01:42:02;;;;;;;2.17;1.17;;;24.20;42.30;;;;;;5076311;28;20051;-60
2022/05/16 01:44:28;;;;;;;3.38;1.35;;;24.10;42.30;;;;;;5076010;28;20020;-58
2022/05/16 01:46:55;;;;;;;2.33;1.25;;;24.10;42.30;;;;;;5077288;28;20025;-58
2022/05/16 01:49:21;;;;;;;3.22;1.50;;;24.10;42.30;;;;;;5074103;28;20054;-59
2022/05/16 01:51:48;;;;;;;2.40;1.20;;;24.10;42.30;;;;;;5073951;28;20471;-60
2022/05/16 01:54:14;;;;;;;1.58;1.20;;;24.10;42.30;;;;;;5074066;28;20111;-58
2022/05/16 01:56:40;;;;;;;4.18;1.40;;;24.10;42.30;;;;;;5073681;28;20100;-58
2022/05/16 01:59:06;;;;;;;2.30;1.20;;;24.10;42.30;;;;;;5073735;28;20106;-58
2022/05/16 02:01:32;;;;;;;1.60;1.25;;;24.10;42.40;;;;;;5073631;28;20486;-58
2022/05/16 02:03:58;;;;;;;1.55;1.00;;;24.10;42.30;;;;;;5073711;28;20467;-58
2022/05/16 02:06:25;;;;;;;3.72;1.20;;;24.10;42.30;;;;;;5074266;28;20020;-58
2022/05/16 02:08:51;;;;;;;1.42;1.00;;;24.10;42.40;;;;;;5072641;28;20021;-58
2022/05/16 02:11:17;;;;;;;2.30;1.23;;;24.10;42.40;;;;;;5073628;28;20074;-58
2022/05/16 02:13:43;;;;;;;2.03;1.17;;;24.10;42.50;;;;;;5073419;28;20024;-58
2022/05/16 02:16:09;;;;;;;2.00;1.30;;;24.10;42.50;;;;;;5073964;28;20072;-59
2022/05/16 02:18:36;;;;;;;2.10;1.20;;;24.10;42.50;;;;;;5074001;28;20024;-58
2022/05/16 02:26:33;;;;;;;3.30;1.58;;;24.00;42.50;;;;;;5074582;28;20024;-59
2022/05/16 02:28:59;;;;;;;1.35;1.23;;;24.10;42.60;;;;;;5073727;28;20019;-58
2022/05/16 02:31:25;;;;;;;1.95;1.27;;;24.00;42.60;;;;;;5073284;28;20107;-58
2022/05/16 02:33:50;;;;;;;2.17;1.02;;;24.00;42.60;;;;;;5073613;28;20056;-58
2022/05/16 02:36:17;;;;;;;2.55;1.40;;;24.00;42.60;;;;;;5073275;28;20052;-59
2022/05/16 02:38:43;;;;;;;1.45;1.17;;;24.00;42.70;;;;;;5072974;28;20537;-58
2022/05/16 02:41:10;;;;;;;2.05;1.38;;;24.00;42.70;;;;;;5072689;28;20095;-58
2022/05/16 02:43:36;;;;;;;2.08;1.15;;;24.00;42.70;;;;;;5074315;28;20027;-59
2022/05/16 02:46:03;;;;;;;2.10;1.40;;;24.00;42.80;;;;;;5073898;28;20050;-60
2022/05/16 02:48:30;;;;;;;1.73;1.35;;;24.00;42.80;;;;;;5075013;28;20058;-60
2022/05/16 02:50:55;;;;;;;1.35;1.17;;;24.00;42.80;;;;;;5077656;28;20067;-58
2022/05/16 02:53:21;;;;;;;1.92;1.38;;;24.00;42.80;;;;;;5078091;28;20016;-59
2022/05/16 02:55:47;;;;;;;1.52;1.20;;;24.00;42.80;;;;;;5059855;28;20029;-59
2022/05/16 02:58:13;;;;;;;1.70;1.13;;;24.00;42.80;;;;;;5077036;28;20029;-59
2022/05/16 03:00:38;;;;;;;2.03;1.27;;;24.00;42.80;;;;;;5077513;28;20037;-59
2022/05/16 03:03:04;;;;;;;1.83;1.05;;;24.00;42.80;;;;;;5077512;28;20020;-59
2022/05/16 03:05:30;;;;;;;3.70;1.35;;;24.00;42.80;;;;;;5077165;28;20063;-58
2022/05/16 03:07:56;;;;;;;2.35;1.30;;;24.00;42.80;;;;;;5077560;28;20029;-58
2022/05/16 03:10:22;;;;;;;2.13;1.15;;;24.00;42.80;;;;;;5076529;28;20036;-58
2022/05/16 03:12:49;;;;;;;2.17;1.30;;;24.00;42.80;;;;;;5076040;28;20051;-59
2022/05/16 03:15:18;;;;;;;1.98;1.20;;;24.00;42.90;;;;;;5079529;28;20090;-59
2022/05/16 03:17:44;;;;;;;1.55;1.23;;;24.00;42.90;;;;;;5080385;28;20051;-58
2022/05/16 03:20:12;;;;;;;2.95;1.33;;;24.00;42.90;;;;;;5080040;28;20103;-58
2022/05/16 03:22:38;;;;;;;2.15;1.48;;;24.00;43.00;;;;;;5081357;28;20040;-58
2022/05/16 03:25:04;;;;;;;3.47;1.35;;;23.90;42.90;;;;;;5081316;28;20384;-57
2022/05/16 03:27:30;;;;;;;2.35;1.10;;;24.00;43.00;;;;;;5079195;28;20055;-57
2022/05/16 03:29:57;;;;;;;3.40;1.30;;;24.00;42.90;;;;;;5077468;28;20020;-55
2022/05/16 03:32:22;;;;;;;2.05;1.40;;;24.00;42.90;;;;;;5075373;28;20024;-55
2022/05/16 03:34:53;;;;;;;1.77;1.45;;;24.00;43.00;;;;;;5075439;28;20023;-55
2022/05/16 03:37:19;;;;;;;1.88;1.20;;;24.00;43.00;;;;;;5075326;28;20019;-57
2022/05/16 03:42:30;;;;;;;1.60;1.30;;;24.00;43.00;;;;;;5075203;28;20024;-56
2022/05/16 03:44:57;;;;;;;1.90;1.15;;;24.00;43.00;;;;;;5075385;28;20016;-55
2022/05/16 03:47:23;;;;;;;1.63;1.20;;;24.00;43.00;;;;;;5075423;28;20024;-54
2022/05/16 03:49:49;;;;;;;1.92;1.15;;;24.00;43.10;;;;;;5075186;28;20417;-55
2022/05/16 03:52:15;;;;;;;2.70;1.45;;;24.00;43.10;;;;;;5075393;28;20469;-56
2022/05/16 03:54:42;;;;;;;2.28;1.33;;;23.90;43.00;;;;;;5075736;28;20024;-58
2022/05/16 03:57:07;;;;;;;1.40;1.15;;;24.00;43.10;;;;;;5076034;28;20450;-57
2022/05/16 03:59:35;;;;;;;3.13;1.50;;;23.90;43.10;;;;;;5075635;28;20028;-58
2022/05/16 04:02:01;;;;;;;1.63;1.33;;;23.90;43.10;;;;;;5074900;28;20027;-55
2022/05/16 04:04:27;;;;;;;2.50;1.58;;;23.90;43.20;;;;;;5075023;28;20017;-57
2022/05/16 04:06:53;;;;;;;4.15;1.27;;;23.90;43.20;;;;;;5074766;28;20020;-60
2022/05/16 04:09:19;;;;;;;1.77;1.27;;;23.90;43.20;;;;;;5074981;28;20029;-56
2022/05/16 04:11:46;;;;;;;3.00;1.50;;;23.90;43.20;;;;;;5074750;28;20023;-55
2022/05/16 04:14:12;;;;;;;1.40;1.30;;;23.90;43.30;;;;;;5074709;28;20020;-55
2022/05/16 04:16:38;;;;;;;1.63;1.10;;;23.90;43.20;;;;;;5074870;28;20016;-57
2022/05/16 04:19:07;;;;;;;1.77;1.30;;;23.90;43.20;;;;;;5074511;28;20459;-56
2022/05/16 04:21:34;;;;;;;1.80;1.00;;;23.90;43.20;;;;;;5074593;28;20048;-54
2022/05/16 04:24:01;;;;;;;1.67;1.13;;;23.90;43.30;;;;;;5074499;28;20016;-53
2022/05/16 04:26:27;;;;;;;1.40;1.30;;;23.90;43.40;;;;;;5074433;28;20016;-56
2022/05/16 04:28:53;;;;;;;2.95;1.40;;;23.90;43.30;;;;;;5074763;28;20021;-55
2022/05/16 04:31:19;;;;;;;2.00;1.25;;;23.90;43.30;;;;;;5074543;28;20430;-55
2022/05/16 04:33:45;;;;;;;1.52;1.30;;;23.90;43.30;;;;;;5074553;28;20017;-56
2022/05/16 04:36:11;;;;;;;1.58;1.30;;;23.90;43.30;;;;;;5074337;28;20024;-57
2022/05/16 04:38:37;;;;;;;2.22;1.30;;;23.90;43.40;;;;;;5074261;28;20368;-54
2022/05/16 04:43:47;;;;;;;2.83;1.50;;;23.90;43.50;;;;;;5074106;28;20035;-55
2022/05/16 04:46:13;;;;;;;1.65;1.17;;;23.90;43.40;;;;;;5073479;28;20021;-57
2022/05/16 04:48:39;;;;;;;2.47;1.30;;;23.90;43.40;;;;;;5075082;28;20472;-57
2022/05/16 04:51:05;;;;;;;2.10;1.20;;;23.90;43.50;;;;;;5075692;28;20016;-57
2022/05/16 04:53:31;;;;;;;1.67;1.30;;;23.90;43.50;;;;;;5075484;28;20069;-58
2022/05/16 04:55:57;;;;;;;3.97;1.20;;;23.90;43.50;;;;;;5079557;28;20016;-60
2022/05/16 04:58:23;;;;;;;1.95;1.30;;;23.90;43.50;;;;;;5078003;28;20036;-57
2022/05/16 05:00:50;;;;;;;2.83;1.10;;;23.90;43.60;;;;;;5079145;28;20051;-58
2022/05/16 05:03:16;;;;;;;2.38;1.42;;;23.90;43.70;;;;;;5061690;28;20013;-58
2022/05/16 05:05:41;;;;;;;1.92;1.30;;;23.90;43.70;;;;;;5060853;28;20008;-57
2022/05/16 05:08:08;;;;;;;2.53;1.38;;;23.90;43.70;;;;;;5075546;28;20471;-55
2022/05/16 05:16:22;;;;;;;1.65;1.30;;;23.90;43.70;;;;;;5076636;28;20047;-57
2022/05/16 05:18:48;;;;;;;3.85;1.50;;;23.90;43.80;;;;;;5078709;28;20023;-57
2022/05/16 05:21:15;;;;;;;1.42;1.23;;;23.90;43.80;;;;;;5077949;28;20100;-58
2022/05/16 05:23:41;;;;;;;3.08;1.27;;;23.90;43.80;;;;;;5077866;28;20439;-57
2022/05/16 05:26:08;;;;;;;3.78;1.45;;;23.90;43.80;;;;;;5076510;28;20009;-58
2022/05/16 05:28:34;;;;;;;1.73;1.40;;;23.90;43.80;;;;;;5077034;28;20016;-55
2022/05/16 05:31:00;;;;;;;2.35;1.38;;;23.90;43.80;;;;;;5074999;28;20013;-57
2022/05/16 05:33:26;;;;;;;3.30;1.40;;;23.90;43.80;;;;;;5074414;28;20356;-57
2022/05/16 05:35:52;;;;;;;2.10;1.40;;;23.90;43.80;;;;;;5075034;28;20463;-55
2022/05/16 05:38:19;;;;;;;1.77;1.20;;;23.90;43.80;;;;;;5074255;28;20093;-57
2022/05/16 05:40:45;;;;;;;2.13;1.10;;;23.90;43.80;;;;;;5073554;28;20052;-55
2022/05/16 05:43:12;;;;;;;3.80;1.33;;;23.90;43.80;;;;;;5074699;28;20020;-57
2022/05/16 05:45:38;;;;;;;1.30;1.20;;;23.90;43.80;;;;;;5073591;28;20383;-57
2022/05/16 05:48:04;;;;;;;2.45;1.40;;;23.90;43.90;;;;;;5073907;28;20092;-56
2022/05/16 05:50:30;;;;;;;2.95;1.60;;;23.90;43.90;;;;;;5074236;28;20023;-57
2022/05/16 05:52:57;;;;;;;2.80;1.90;;;23.90;43.90;;;;;;5073010;28;20033;-55
2022/05/16 05:55:22;;;;;;;1.92;1.25;;;23.90;44.00;;;;;;5073101;28;20017;-57
2022/05/16 05:57:49;;;;;;;2.42;1.50;;;23.90;44.00;;;;;;5055302;28;20024;-55
2022/05/16 06:00:15;;;;;;;2.15;1.25;;;23.90;43.90;;;;;;5071613;28;20040;-56
2022/05/16 06:02:42;;;;;;;2.72;1.35;;;23.90;43.90;;;;;;5054287;28;20036;-57
2022/05/16 06:05:14;;;;;;;2.22;1.50;;;23.90;44.00;;;;;;5073309;28;20015;-58
2022/05/16 06:07:40;;;;;;;5.05;1.80;;;23.90;44.60;;;;;;5072710;28;20016;-59
2022/05/16 06:10:07;;;;;;;10.77;2.13;;;23.90;45.60;;;;;;5072438;28;20076;-59
2022/05/16 06:12:33;;;;;;;7.18;1.88;;;23.60;45.90;;;;;;5072989;28;20492;-61
2022/05/16 06:14:59;;;;;;;7.88;2.30;;;23.60;47.10;;;;;;5073372;28;20021;-59
2022/05/16 06:17:25;;;;;;;7.28;2.10;;;23.60;48.20;;;;;;5054656;28;20035;-61
2022/05/16 06:19:52;;;;;;;9.70;2.13;;;23.50;48.60;;;;;;5070130;28;20024;-61
2022/05/16 06:22:19;;;;;;;6.82;2.33;;;23.40;49.50;;;;;;5052975;28;20047;-59
2022/05/16 06:27:32;;;;;;;17.77;6.43;;;23.60;50.40;;;;;;5059961;28;20071;-59
2022/05/16 06:29:59;;;;;;;27.77;6.70;;;23.70;50.90;;;;;;5075560;28;20027;-60
2022/05/16 06:32:24;;;;;;;19.85;4.78;;;23.90;51.10;;;;;;5074153;28;20017;-61
2022/05/16 06:34:51;;;;;;;17.45;4.68;;;24.10;51.60;;;;;;5075423;28;20392;-59
2022/05/16 06:37:18;;;;;;;14.82;4.88;;;24.30;52.00;;;;;;5075460;28;20416;-59
2022/05/16 06:39:46;;;;;;;21.95;4.80;;;24.30;52.50;;;;;;5074236;28;20039;-60
2022/05/16 06:42:12;;;;;;;13.13;4.38;;;24.40;52.20;;;;;;5075174;28;20471;-61
2022/05/16 06:44:38;;;;;;;72.15;9.93;;;24.50;52.00;;;;;;5057671;28;20021;-60
2022/05/16 06:47:05;;;;;;;44.42;7.78;;;24.50;52.20;;;;;;5074939;28;20005;-59
2022/05/16 06:49:31;;;;;;;45.03;6.70;;;24.60;52.30;;;;;;5075178;28;20020;-58
2022/05/16 06:51:58;;;;;;;44.63;6.88;;;24.70;52.60;;;;;;5075033;28;20016;-59
2022/05/16 06:54:24;;;;;;;56.75;8.18;;;24.70;52.70;;;;;;5074978;28;20016;-60
2022/05/16 06:56:50;;;;;;;56.85;7.80;;;24.90;53.10;;;;;;5074583;28;20055;-58
2022/05/16 06:59:18;;;;;;;37.33;6.47;;;25.10;52.50;;;;;;5074850;28;20427;-59
2022/05/16 07:01:44;;;;;;;32.25;6.45;;;25.20;52.30;;;;;;5074661;28;20110;-59
2022/05/16 07:04:11;;;;;;;37.53;5.63;;;25.30;52.20;;;;;;5075708;28;20102;-58
2022/05/16 07:06:37;;;;;;;27.17;4.38;;;25.40;52.00;;;;;;5057143;28;20036;-60
2022/05/16 07:09:02;;;;;;;32.63;5.47;;;25.50;52.00;;;;;;5074560;28;20395;-58
2022/05/16 07:11:29;;;;;;;23.60;4.60;;;25.40;52.50;;;;;;5074356;28;20020;-59
2022/05/16 07:13:56;;;;;;;16.98;4.25;;;25.30;51.40;;;;;;5073551;28;20481;-60
2022/05/16 07:16:21;;;;;;;15.05;3.42;;;25.00;51.50;;;;;;5074405;28;20036;-59
2022/05/16 07:18:47;;;;;;;14.02;2.80;;;24.50;51.80;;;;;;5073057;28;20017;-60
2022/05/16 07:21:13;;;;;;;8.05;2.00;;;24.10;52.20;;;;;;5072680;28;20075;-60
2022/05/16 07:23:39;;;;;;;5.55;1.85;;;24.10;52.50;;;;;;5074568;28;20386;-59
2022/05/16 07:28:49;;;;;;;7.82;2.20;;;24.20;52.40;;;;;;5073641;28;20027;-59
2022/05/16 07:31:15;;;;;;;10.88;2.40;;;24.00;52.80;;;;;;5074153;28;20028;-59
2022/05/16 07:33:43;;;;;;;7.80;2.30;;;23.70;53.80;;;;;;5056324;28;20429;-60
2022/05/16 07:36:09;;;;;;;9.02;2.13;;;23.40;54.40;;;;;;5071636;28;20029;-60
2022/05/16 07:38:35;;;;;;;8.48;2.22;;;23.50;54.60;;;;;;5072925;28;20478;-60
2022/05/16 07:41:01;;;;;;;12.30;2.70;;;23.50;54.70;;;;;;5074071;28;20507;-59
2022/05/16 07:43:26;;;;;;;36.83;5.13;;;23.40;55.00;;;;;;5073865;28;20047;-60
2022/05/16 07:45:52;;;;;;;8.70;2.55;;;23.40;55.10;;;;;;5073951;28;20017;-59
2022/05/16 07:48:18;;;;;;;5.68;2.10;;;23.40;55.30;;;;;;5055894;28;20017;-60
2022/05/16 07:50:44;;;;;;;6.30;2.40;;;23.50;55.30;;;;;;5074063;28;20028;-59
2022/05/16 07:53:13;;;;;;;8.55;2.00;;;23.70;55.00;;;;;;5072472;28;20336;-59
2022/05/16 07:55:49;;;;;;;9.52;2.45;;;23.70;55.00;;;;;;5073915;28;20095;-59
2022/05/16 07:58:15;;;;;;;11.82;2.10;;;23.60;55.20;;;;;;5074374;28;20146;-59
2022/05/16 08:00:41;;;;;;;6.47;2.55;;;23.50;55.60;;;;;;5073813;28;20024;-59
2022/05/16 08:03:16;;;;;;;14.07;3.10;;;23.40;55.60;;;;;;5074337;28;20094;-59
2022/05/16 08:05:42;;;;;;;10.80;2.15;;;23.10;55.90;;;;;;5073978;28;20005;-59
2022/05/16 08:10:53;;;;;;;4.95;2.25;;;22.70;57.10;;;;;;5074232;28;20052;-59
2022/05/16 08:13:19;;;;;;;11.82;2.40;;;22.70;57.40;;;;;;5073247;28;20024;-60
2022/05/16 08:15:46;;;;;;;7.72;2.78;;;22.70;57.40;;;;;;5073453;28;20055;-60
2022/05/16 08:18:12;;;;;;;10.63;2.55;;;22.70;57.10;;;;;;5073340;28;20044;-60
2022/05/16 08:20:41;;;;;;;5.57;2.53;;;22.80;57.00;;;;;;5072921;28;20028;-59
2022/05/16 08:23:07;;;;;;;19.17;2.38;;;23.00;56.80;;;;;;5073218;28;20071;-59
2022/05/16 08:25:33;;;;;;;10.00;2.47;;;23.00;56.90;;;;;;5071805;28;20432;-59
2022/05/16 08:27:59;;;;;;;7.45;2.65;;;22.90;57.10;;;;;;5071770;28;20020;-58
2022/05/16 08:30:26;;;;;;;8.25;2.47;;;22.90;57.20;;;;;;5071654;28;20548;-59
2022/05/16 08:32:53;;;;;;;6.15;2.38;;;22.90;57.40;;;;;;5072879;28;20033;-59
2022/05/16 08:35:19;;;;;;;5.88;2.75;;;23.00;57.60;;;;;;5070754;28;20020;-59
2022/05/16 08:40:55;;;;;;;6.70;2.90;;;22.90;58.20;;;;;;5070939;28;20043;-58
2022/05/16 08:43:47;;;;;;;8.30;3.08;;;23.00;58.80;;;;;;5069001;28;20024;-58
2022/05/16 08:46:18;;;;;;;5.15;2.85;;;23.00;57.90;;;;;;5072187;28;20027;-58
2022/05/16 08:48:45;;;;;;;;;;;23.10;57.90;;;;;;5072020;28;20027;-60
2022/05/16 08:51:23;;;;;;;8.35;3.00;;;23.30;57.70;;;;;;5071536;28;19994;-60
2022/05/16 08:54:12;;;;;;;8.50;2.83;;;23.60;57.30;;;;;;5072755;28;20024;-58
2022/05/16 08:56:40;;;;;;;9.52;3.40;;;23.30;57.50;;;;;;5071951;28;20016;-58
2022/05/16 08:59:14;;;;;;;9.73;2.60;;;23.10;58.00;;;;;;5054901;28;20578;-58
2022/05/16 09:01:43;;;;;;;10.10;3.10;;;23.10;58.10;;;;;;5071271;28;20024;-59
2022/05/16 09:04:14;;;;;;;13.98;4.13;;;22.90;58.30;;;;;;5072530;28;20005;-59
2022/05/16 09:06:56;;;;;;;12.40;3.28;;;22.70;58.60;;;;;;5054582;28;20090;-59
2022/05/16 09:09:25;;;;;;;6.35;2.83;;;22.70;58.80;;;;;;5071912;28;20031;-60
2022/05/16 09:12:07;;;;;;;8.60;3.45;;;22.80;58.60;;;;;;5072146;28;20019;-59
2022/05/16 09:14:52;;;;;;;16.80;4.03;;;22.80;58.90;;;;;;5072232;28;20486;-56
2022/05/16 09:17:48;;;;;;;7.60;4.15;;;22.60;59.50;;;;;;5072284;28;20043;-60
2022/05/16 09:20:53;;;;;;;9.73;4.30;;;22.40;60.00;;;;;;5070881;28;20097;-60
2022/05/16 09:23:22;;;;;;;8.80;4.10;;;22.40;60.10;;;;;;5050052;28;20037;-60
2022/05/16 09:26:01;;;;;;;8.93;3.85;;;22.60;59.60;;;;;;5050318;28;20017;-61
2022/05/16 09:28:37;;;;;;;7.72;3.97;;;22.60;59.80;;;;;;5050260;28;20029;-59
2022/05/16 09:31:25;;;;;;;10.90;4.82;;;22.60;60.10;;;;;;5050478;28;20020;-59
2022/05/16 09:33:53;;;;;;;17.02;4.40;;;22.60;60.20;;;;;;5033833;28;20476;-58
2022/05/16 09:36:30;;;;;;;20.10;4.88;;;22.50;60.40;;;;;;5050001;28;20040;-58
2022/05/16 09:38:56;;;;;;;11.30;4.95;;;22.30;60.50;;;;;;5049772;28;20036;-59
2022/05/16 09:41:26;;;;;;;9.50;4.05;;;22.20;61.00;;;;;;5049926;28;20142;-59
2022/05/16 09:43:58;;;;;;;9.77;4.15;;;22.20;61.20;;;;;;5050070;28;20086;-59
2022/05/16 09:46:35;;;;;;;8.73;4.60;;;22.30;61.00;;;;;;5050127;28;20483;-59
2022/05/16 09:49:23;;;;;;;13.90;4.82;;;22.20;61.00;;;;;;5050223;28;20092;-58
2022/05/16 09:51:56;;;;;;;10.38;4.68;;;22.20;61.10;;;;;;5036154;28;20045;-59
2022/05/16 09:54:24;;;;;;;13.48;4.93;;;22.10;60.90;;;;;;5064787;28;20040;-59
2022/05/16 09:57:19;;;;;;;13.10;4.97;;;22.00;60.70;;;;;;5071043;28;20104;-60
2022/05/16 09:59:55;;;;;;;21.25;5.43;;;22.00;60.70;;;;;;5071186;28;20043;-59
2022/05/16 10:02:35;;;;;;;13.85;4.82;;;22.10;60.50;;;;;;5072649;28;20021;-59
2022/05/16 10:05:08;;;;;;;17.17;5.32;;;22.30;59.60;;;;;;5072668;28;20112;-55
2022/05/16 10:07:43;;;;;;;9.68;4.45;;;22.30;59.40;;;;;;5071770;28;20004;-58
2022/05/16 10:10:25;;;;;;;9.82;5.00;;;22.50;59.10;;;;;;5071913;28;20017;-57
2022/05/16 10:12:52;;;;;;;9.00;4.50;;;22.70;58.40;;;;;;5070732;28;20487;-56
2022/05/16 10:15:20;;;;;;;11.70;5.10;;;22.80;58.00;;;;;;5071876;28;20024;-57
2022/05/16 10:17:46;;;;;;;9.35;5.30;;;22.70;58.10;;;;;;5072008;28;20057;-55
2022/05/16 10:20:20;;;;;;;11.98;4.53;;;22.60;58.50;;;;;;5070432;28;20025;-56
2022/05/16 10:22:46;;;;;;;12.90;4.38;;;22.60;58.00;;;;;;5070689;28;20033;-54
2022/05/16 10:25:15;;;;;;;9.82;4.55;;;22.70;58.00;;;;;;5070582;28;20123;-58
2022/05/16 10:27:42;;;;;;;11.27;4.78;;;22.70;57.60;;;;;;5054522;28;20021;-58
2022/05/16 10:30:20;;;;;;;10.88;5.05;;;22.70;57.70;;;;;;5053785;28;20012;-58
2022/05/16 10:35:38;;;;;;;8.52;4.15;;;22.60;58.40;;;;;;5070854;28;20142;-58
2022/05/16 10:38:08;;;;;;;9.07;4.50;;;22.50;58.40;;;;;;5054354;28;20046;-59
2022/05/16 10:40:35;;;;;;;12.85;4.70;;;22.40;58.50;;;;;;5070238;28;20032;-59
2022/05/16 10:43:20;;;;;;;9.68;4.57;;;22.40;58.50;;;;;;5071419;28;20096;-59
2022/05/16 10:45:51;;;;;;;12.85;4.38;;;22.30;58.40;;;;;;5070808;28;20017;-59
2022/05/16 10:48:19;;;;;;;15.73;5.50;;;22.40;57.40;;;;;;5071148;28;20039;-57
2022/05/16 10:50:58;;;;;;;15.15;4.53;;;22.40;56.90;;;;;;5071749;28;20016;-58
2022/05/16 10:53:31;;;;;;;19.08;4.10;;;22.40;56.60;;;;;;5070735;28;20047;-58
2022/05/16 10:56:22;;;;;;;12.48;3.65;;;22.20;56.70;;;;;;5070770;28;20017;-60
2022/05/16 10:59:05;;;;;;;15.60;3.72;;;21.60;58.00;;;;;;5067143;28;20025;-58
2022/05/16 11:01:56;;;;;;;10.40;3.35;;;21.40;58.70;;;;;;5070225;28;20055;-58
2022/05/16 11:04:43;;;;;;;8.45;3.67;;;21.50;58.90;;;;;;5069802;28;20055;-57
2022/05/16 11:07:27;;;;;;;9.45;3.67;;;21.50;58.10;;;;;;5069875;28;20092;-59
2022/05/16 11:10:10;;;;;;;10.43;3.28;;;21.70;57.40;;;;;;5071131;28;20016;-58
2022/05/16 11:12:53;;;;;;;8.05;2.92;;;21.80;56.40;;;;;;5072037;28;20182;-58
2022/05/16 11:15:43;;;;;;;14.88;3.28;;;22.10;56.00;;;;;;5074191;28;20020;-59
2022/05/16 11:18:19;;;;;;;14.10;2.70;;;22.40;55.20;;;;;;5058262;28;20008;-59
2022/05/16 11:20:51;;;;;;;18.30;3.28;;;22.70;54.70;;;;;;5072815;28;20125;-58
2022/05/16 11:23:50;;;;;;;9.70;3.45;;;22.90;54.30;;;;;;5072976;28;20043;-59
2022/05/16 11:26:57;;;;;;;8.10;3.00;;;23.00;53.50;;;;;;5074324;28;20087;-59
2022/05/16 11:29:26;;;;;;;8.48;2.90;;;22.90;53.20;;;;;;5072746;28;20479;-58
2022/05/16 11:31:58;;;;;;;10.18;3.22;;;23.00;53.60;;;;;;5074601;28;20088;-59
2022/05/16 11:34:53;;;;;;;7.57;3.03;;;23.00;53.40;;;;;;5074484;28;20024;-58
2022/05/16 11:37:55;;;;;;;12.25;3.72;;;22.90;52.80;;;;;;5073295;28;20012;-59
2022/05/16 11:40:36;;;;;;;10.65;2.90;;;22.80;53.50;;;;;;5074110;28;20028;-59
2022/05/16 11:43:26;;;;;;;16.42;3.28;;;23.00;53.50;;;;;;5073145;28;20016;-58
2022/05/16 11:46:27;;;;;;;13.40;3.33;;;23.30;52.90;;;;;;5073443;28;20009;-59
2022/05/16 11:49:19;;;;;;;7.53;3.20;;;23.40;52.60;;;;;;5073249;28;20036;-57
2022/05/16 11:52:05;;;;;;;9.57;2.90;;;23.30;52.40;;;;;;5073314;28;20048;-59
2022/05/16 11:54:36;;;;;;;11.80;3.17;;;23.40;52.50;;;;;;5071613;28;20479;-58
2022/05/16 12:03:07;;;;;;;15.23;2.85;;;23.10;53.10;;;;;;5072372;28;20456;-58
2022/05/16 12:05:43;;;;;;;10.63;2.10;;;22.90;52.90;;;;;;5072806;28;20052;-45
2022/05/16 12:08:32;;;;;;;7.38;2.38;;;22.70;53.30;;;;;;5073104;28;20062;-42
2022/05/16 12:11:03;;;;;;;13.10;2.72;;;22.70;53.30;;;;;;5073287;28;20529;-41
2022/05/16 12:13:32;;;;;;;8.98;2.50;;;22.70;53.40;;;;;;5073237;28;20023;-40
2022/05/16 12:16:16;;;;;;;8.35;3.08;;;22.70;53.20;;;;;;5071987;28;20444;-42
2022/05/16 12:19:13;;;;;;;6.00;1.98;;;22.80;53.10;;;;;;5073223;28;20087;-40
2022/05/16 12:21:39;;;;;;;10.10;2.05;;;22.90;52.30;;;;;;5072036;28;20071;-42
2022/05/16 12:24:06;;;;;;;9.07;2.17;;;22.80;51.80;;;;;;5072409;28;20113;-53
2022/05/16 12:27:03;;;;;;;9.00;2.63;;;22.90;52.10;;;;;;5073772;28;20009;-57
2022/05/16 12:29:32;;;;;;;14.98;2.08;;;22.90;51.80;;;;;;5072525;28;20017;-58
2022/05/16 12:31:58;;;;;;;10.98;2.42;;;22.90;51.70;;;;;;5071485;28;20048;-54
2022/05/16 12:34:29;;;;;;;12.63;2.45;;;22.90;51.80;;;;;;5071597;28;20016;-52
2022/05/16 12:36:59;;;;;;;15.35;2.10;;;22.90;52.00;;;;;;5072573;28;20085;-56
2022/05/16 12:39:49;;;;;;;9.95;2.33;;;22.90;52.00;;;;;;5070961;28;20021;-52
2022/05/16 12:42:17;;;;;;;10.43;2.35;;;22.80;52.50;;;;;;5071554;28;20080;-57
2022/05/16 12:45:06;;;;;;;7.03;2.10;;;22.90;53.00;;;;;;5071549;28;20329;-56
2022/05/16 12:47:38;;;;;;;9.75;2.33;;;22.90;52.80;;;;;;5067698;28;20032;-58
2022/05/16 12:50:30;;;;;;;4.95;2.08;;;22.90;53.00;;;;;;5071640;28;20065;-56
2022/05/16 12:53:15;;;;;;;;;;;22.80;53.30;;;;;;5071533;28;20463;-54
2022/05/16 12:56:07;;;;;;;6.80;1.83;;;22.80;53.10;;;;;;5071531;28;19900;-58
2022/05/16 12:58:48;;;;;;;14.05;2.22;;;22.90;52.10;;;;;;5072280;28;20095;-58
2022/05/16 13:01:19;;;;;;;10.18;1.88;;;22.90;51.30;;;;;;5072069;28;20055;-58
2022/05/16 13:04:04;;;;;;;7.65;2.00;;;23.00;51.00;;;;;;5072455;28;20013;-58
2022/05/16 13:06:57;;;;;;;5.28;1.95;;;23.00;50.60;;;;;;5072278;28;20021;-58
2022/05/16 13:09:32;;;;;;;5.63;1.38;;;23.00;50.80;;;;;;5069764;28;20021;-58
2022/05/16 13:12:34;;;;;;;10.30;1.90;;;23.00;51.00;;;;;;5072796;28;20096;-56
2022/05/16 13:15:10;;;;;;;6.72;1.98;;;23.20;50.90;;;;;;5049685;28;20040;-55
2022/05/16 13:17:48;;;;;;;6.55;2.25;;;23.10;51.00;;;;;;5049943;28;20183;-56
2022/05/16 13:20:18;;;;;;;20.83;2.65;;;23.10;51.20;;;;;;5033968;28;20052;-59
2022/05/16 13:22:45;;;;;;;14.07;1.83;;;23.10;50.60;;;;;;5050426;28;20514;-58
2022/05/16 13:25:11;;;;;;;13.23;1.85;;;23.10;50.50;;;;;;5050767;28;20028;-58
2022/05/16 13:30:22;;;;;;;12.43;2.05;;;23.40;49.70;;;;;;5050861;28;20466;-58
2022/05/16 13:32:48;;;;;;;15.15;1.85;;;23.50;49.10;;;;;;5050104;28;20103;-58
2022/05/16 13:35:36;;;;;;;14.32;1.80;;;23.60;48.90;;;;;;5050737;28;20045;-58
2022/05/16 13:38:06;;;;;;;8.63;1.67;;;23.60;49.00;;;;;;5034229;28;20029;-58
2022/05/16 13:40:40;;;;;;;10.50;2.05;;;23.70;48.60;;;;;;5050441;28;20032;-58
2022/05/16 13:43:16;;;;;;;10.95;2.00;;;23.70;48.50;;;;;;5050650;28;20096;-59
2022/05/16 13:45:42;;;;;;;6.82;1.58;;;23.70;48.60;;;;;;5050576;28;20024;-58
2022/05/16 13:48:11;;;;;;;6.18;1.80;;;23.80;48.40;;;;;;5050549;28;20041;-59